createdAt,value
2022-11-29T00:01:32.395Z,71.60
2022-11-29T00:04:00.614Z,71.60
2022-11-29T00:06:30.811Z,71.60
2022-11-29T00:09:02.327Z,71.60
2022-11-29T00:11:51.088Z,71.70
2022-11-29T00:14:20.403Z,71.60
2022-11-29T00:16:51.593Z,71.70
2022-11-29T00:19:19.868Z,71.60
2022-11-29T00:21:47.612Z,71.60
2022-11-29T00:24:16.737Z,71.60
2022-11-29T00:26:44.465Z,71.60
2022-11-29T00:29:12.919Z,71.60
2022-11-29T00:31:41.369Z,71.60
2022-11-29T00:34:10.965Z,71.70
2022-11-29T00:36:39.552Z,71.60
2022-11-29T00:39:11.486Z,71.70
2022-11-29T00:41:40.901Z,71.70
2022-11-29T00:44:09.242Z,71.60
2022-11-29T00:46:37.268Z,71.60
2022-11-29T00:49:05.432Z,71.60
2022-11-29T00:51:33.386Z,71.60
2022-11-29T00:54:01.124Z,71.60
2022-11-29T00:56:28.904Z,71.60
2022-11-29T00:58:58.219Z,71.60
2022-11-29T01:01:26.051Z,71.60
2022-11-29T01:03:53.845Z,71.60
2022-11-29T01:06:21.691Z,71.60
2022-11-29T01:08:50.590Z,71.60
2022-11-29T01:11:20.305Z,71.60
2022-11-29T01:13:48.761Z,71.60
2022-11-29T01:16:19.001Z,71.60
2022-11-29T01:18:47.171Z,71.50
2022-11-29T01:21:17.539Z,71.50
2022-11-29T01:23:46.234Z,71.50
2022-11-29T01:26:16.013Z,71.60
2022-11-29T01:28:46.009Z,71.60
2022-11-29T01:31:15.908Z,71.50
2022-11-29T01:33:45.387Z,71.60
2022-11-29T01:36:14.617Z,71.60
2022-11-29T01:38:43.408Z,71.60
2022-11-29T01:41:14.515Z,71.60
2022-11-29T01:44:03.629Z,71.70
2022-11-29T01:46:33.188Z,71.70
2022-11-29T01:49:06.197Z,71.70
2022-11-29T01:51:35.397Z,71.70
2022-11-29T01:54:03.554Z,71.70
2022-11-29T01:56:34.097Z,71.70
2022-11-29T01:59:04.379Z,71.70
2022-11-29T02:01:34.536Z,71.70
2022-11-29T02:04:04.014Z,71.70
2022-11-29T02:06:32.071Z,71.70
2022-11-29T02:08:59.947Z,71.70
2022-11-29T02:11:55.988Z,71.70
2022-11-29T02:14:44.283Z,71.70
2022-11-29T02:17:24.821Z,71.70
2022-11-29T02:20:22.657Z,71.70
2022-11-29T02:22:58.048Z,71.70
2022-11-29T02:25:40.724Z,71.70
2022-11-29T02:28:46.411Z,71.70
2022-11-29T02:31:51.804Z,71.80
2022-11-29T02:34:44.181Z,71.80
2022-11-29T02:37:38.876Z,71.70
2022-11-29T02:40:24.999Z,71.80
2022-11-29T02:43:17.789Z,71.70
2022-11-29T02:45:57.474Z,71.70
2022-11-29T02:48:43.911Z,71.70
2022-11-29T02:51:21.769Z,71.70
2022-11-29T02:53:57.903Z,71.70
2022-11-29T02:56:32.993Z,71.70
2022-11-29T02:59:06.117Z,71.70
2022-11-29T03:01:40.796Z,71.80
2022-11-29T03:04:15.821Z,71.70
2022-11-29T03:06:54.248Z,71.70
2022-11-29T03:09:30.004Z,71.70
2022-11-29T03:12:08.715Z,71.70
2022-11-29T03:14:51.152Z,71.70
2022-11-29T03:17:32.575Z,71.70
2022-11-29T03:20:08.612Z,71.70
2022-11-29T03:22:44.711Z,71.70
2022-11-29T03:25:18.656Z,71.70
2022-11-29T03:27:51.247Z,71.70
2022-11-29T03:30:21.611Z,71.70
2022-11-29T03:32:57.893Z,71.70
2022-11-29T03:35:33.624Z,71.70
2022-11-29T03:38:09.857Z,71.70
2022-11-29T03:40:46.187Z,71.70
2022-11-29T03:43:18.936Z,71.70
2022-11-29T03:45:52.929Z,71.80
2022-11-29T03:48:25.395Z,71.80
2022-11-29T03:50:57.164Z,71.80
2022-11-29T03:53:34.736Z,71.80
2022-11-29T03:56:05.400Z,71.80
2022-11-29T03:58:46.111Z,71.80
2022-11-29T04:01:37.798Z,71.80
2022-11-29T04:04:38.115Z,71.80
2022-11-29T04:07:19.541Z,71.80
2022-11-29T04:10:09.286Z,71.80
2022-11-29T04:13:01.727Z,71.80
2022-11-29T04:16:08.533Z,71.80
2022-11-29T04:18:59.742Z,71.80
2022-11-29T04:21:59.115Z,71.80
2022-11-29T04:25:05.362Z,71.70
2022-11-29T04:27:42.312Z,71.80
2022-11-29T04:30:16.323Z,71.70
2022-11-29T04:33:15.415Z,71.70
2022-11-29T04:35:56.724Z,71.70
2022-11-29T04:38:37.877Z,71.70
2022-11-29T04:41:20.685Z,71.70
2022-11-29T04:43:58.646Z,71.70
2022-11-29T04:46:52.225Z,71.70
2022-11-29T04:49:36.913Z,71.80
2022-11-29T04:52:21.793Z,71.70
2022-11-29T04:54:57.625Z,71.80
2022-11-29T04:57:36.030Z,71.80
2022-11-29T05:00:09.565Z,71.70
2022-11-29T05:02:44.348Z,71.80
2022-11-29T05:05:30.550Z,71.70
2022-11-29T05:08:22.105Z,71.80
2022-11-29T05:11:00.085Z,71.60
2022-11-29T05:13:39.799Z,71.60
2022-11-29T05:16:19.868Z,71.60
2022-11-29T05:19:12.140Z,71.50
2022-11-29T05:21:48.453Z,72.30
2022-11-29T05:24:29.311Z,71.40
2022-11-29T05:27:04.247Z,71.30
2022-11-29T05:29:41.632Z,71.30
2022-11-29T05:32:25.304Z,71.30
2022-11-29T05:35:28.618Z,71.20
2022-11-29T05:38:01.865Z,71.10
2022-11-29T05:40:43.981Z,71.10
2022-11-29T05:43:30.431Z,71.00
2022-11-29T05:46:08.085Z,71.00
2022-11-29T05:48:45.228Z,70.90
2022-11-29T05:51:21.902Z,70.90
2022-11-29T05:53:58.315Z,70.80
2022-11-29T05:56:35.233Z,70.90
2022-11-29T05:59:09.000Z,70.80
2022-11-29T06:01:47.732Z,70.80
2022-11-29T06:04:21.252Z,70.70
2022-11-29T06:06:56.160Z,71.50
2022-11-29T06:09:30.384Z,70.60
2022-11-29T06:12:05.224Z,70.60
2022-11-29T06:14:48.842Z,70.60
2022-11-29T06:17:38.993Z,70.50
2022-11-29T06:20:39.828Z,70.50
2022-11-29T06:23:28.820Z,70.60
2022-11-29T06:26:11.604Z,71.10
2022-11-29T06:28:50.351Z,71.60
2022-11-29T06:31:24.657Z,71.90
2022-11-29T06:34:01.627Z,72.00
2022-11-29T06:36:35.575Z,72.10
2022-11-29T06:39:03.714Z,72.20
2022-11-29T06:41:32.203Z,72.20
2022-11-29T06:44:00.570Z,72.20
2022-11-29T06:46:40.411Z,72.30
2022-11-29T06:49:13.789Z,72.40
2022-11-29T06:51:50.714Z,72.40
2022-11-29T06:54:31.105Z,72.40
2022-11-29T06:57:10.545Z,72.40
2022-11-29T06:59:50.907Z,72.40
2022-11-29T07:02:45.247Z,72.40
2022-11-29T07:05:24.458Z,72.30
2022-11-29T07:07:54.855Z,72.20
2022-11-29T07:10:23.912Z,72.20
2022-11-29T07:12:52.703Z,72.20
2022-11-29T07:15:22.578Z,72.10
2022-11-29T07:18:03.897Z,72.00
2022-11-29T07:20:41.837Z,72.00
2022-11-29T07:23:19.025Z,72.00
2022-11-29T07:25:57.589Z,72.10
2022-11-29T07:28:40.285Z,71.90
2022-11-29T07:31:15.703Z,71.80
2022-11-29T07:33:54.401Z,71.80
2022-11-29T07:36:33.965Z,71.80
2022-11-29T07:39:17.605Z,71.70
2022-11-29T07:41:51.276Z,71.70
2022-11-29T07:44:27.971Z,71.60
2022-11-29T07:46:55.821Z,71.60
2022-11-29T07:49:23.571Z,71.50
2022-11-29T07:51:54.466Z,71.40
2022-11-29T07:54:22.501Z,71.40
2022-11-29T07:56:50.237Z,71.30
2022-11-29T07:59:18.244Z,71.30
2022-11-29T08:01:46.181Z,71.30
2022-11-29T08:04:14.065Z,71.20
2022-11-29T08:06:41.796Z,71.20
2022-11-29T08:09:10.892Z,71.10
2022-11-29T08:11:39.786Z,71.10
2022-11-29T08:14:07.541Z,71.10
2022-11-29T08:16:35.487Z,71.00
2022-11-29T08:19:03.335Z,71.00
2022-11-29T08:21:31.074Z,71.00
2022-11-29T08:23:58.867Z,70.90
2022-11-29T08:26:31.581Z,70.90
2022-11-29T08:28:59.844Z,70.90
2022-11-29T08:31:27.598Z,70.80
2022-11-29T08:33:55.341Z,70.80
2022-11-29T08:36:23.147Z,70.80
2022-11-29T08:38:53.892Z,70.70
2022-11-29T08:41:25.005Z,70.70
2022-11-29T08:43:54.075Z,70.70
2022-11-29T08:46:21.973Z,70.60
2022-11-29T08:48:49.838Z,70.50
2022-11-29T08:51:17.614Z,70.50
2022-11-29T08:53:46.176Z,70.40
2022-11-29T08:57:04.574Z,70.40
2022-11-29T08:59:05.046Z,70.20
2022-11-29T09:01:33.007Z,70.30
2022-11-29T09:04:02.691Z,70.20
2022-11-29T09:06:33.246Z,70.20
2022-11-29T09:09:01.775Z,70.20
2022-11-29T09:11:31.865Z,70.20
2022-11-29T09:14:02.432Z,70.10
2022-11-29T09:16:34.717Z,70.10
2022-11-29T09:19:03.019Z,70.00
2022-11-29T09:21:32.960Z,70.80
2022-11-29T09:24:01.940Z,70.00
2022-11-29T09:26:31.587Z,69.90
2022-11-29T09:29:01.065Z,69.90
2022-11-29T09:31:31.255Z,69.80
2022-11-29T09:33:59.077Z,69.80
2022-11-29T09:36:29.194Z,69.80
2022-11-29T09:38:57.277Z,69.70
2022-11-29T09:41:42.949Z,69.70
2022-11-29T09:44:21.539Z,69.70
2022-11-29T09:47:00.284Z,69.70
2022-11-29T09:49:56.087Z,69.70
2022-11-29T09:52:37.505Z,69.60
2022-11-29T09:55:24.714Z,69.60
2022-11-29T09:57:54.606Z,69.60
2022-11-29T10:00:22.950Z,69.50
2022-11-29T10:02:56.578Z,69.50
2022-11-29T10:05:28.795Z,69.50
2022-11-29T10:08:01.704Z,69.50
2022-11-29T10:10:37.625Z,69.50
2022-11-29T10:13:15.613Z,69.50
2022-11-29T10:15:46.778Z,69.50
2022-11-29T10:18:20.311Z,69.50
2022-11-29T10:20:51.626Z,69.50
2022-11-29T10:23:24.409Z,69.40
2022-11-29T10:25:53.792Z,69.50
2022-11-29T10:28:23.376Z,69.50
2022-11-29T10:30:54.740Z,69.40
2022-11-29T10:33:29.357Z,69.40
2022-11-29T10:35:58.995Z,69.40
2022-11-29T10:38:31.442Z,69.50
2022-11-29T10:41:06.670Z,69.60
2022-11-29T10:43:34.648Z,69.60
2022-11-29T10:46:02.642Z,69.70
2022-11-29T10:48:34.940Z,69.80
2022-11-29T10:51:03.496Z,70.00
2022-11-29T10:53:36.565Z,71.20
2022-11-29T10:56:08.288Z,70.80
2022-11-29T10:58:37.183Z,71.20
2022-11-29T11:01:07.479Z,71.50
2022-11-29T11:03:40.609Z,71.70
2022-11-29T11:06:12.523Z,71.70
2022-11-29T11:08:43.463Z,71.90
2022-11-29T11:11:12.376Z,72.00
2022-11-29T11:13:41.068Z,72.10
2022-11-29T11:16:14.190Z,72.10
2022-11-29T11:18:44.091Z,72.10
2022-11-29T11:21:13.912Z,72.10
2022-11-29T11:23:51.997Z,72.00
2022-11-29T11:26:20.554Z,71.90
2022-11-29T11:28:52.606Z,71.90
2022-11-29T11:31:29.722Z,71.80
2022-11-29T11:34:23.597Z,71.80
2022-11-29T11:36:51.467Z,71.70
2022-11-29T11:39:21.613Z,71.60
2022-11-29T11:42:08.368Z,71.50
2022-11-29T11:44:49.183Z,71.40
2022-11-29T11:47:20.082Z,71.40
2022-11-29T11:49:54.563Z,71.30
2022-11-29T11:52:25.027Z,71.20
2022-11-29T11:54:55.811Z,71.20
2022-11-29T11:57:24.701Z,71.10
2022-11-29T11:59:54.527Z,71.10
2022-11-29T12:02:27.582Z,71.00
2022-11-29T12:05:00.529Z,71.00
2022-11-29T12:08:06.277Z,71.00
2022-11-29T12:10:26.110Z,70.90
2022-11-29T12:12:55.701Z,70.90
2022-11-29T12:15:27.702Z,70.90
2022-11-29T12:18:01.505Z,70.80
2022-11-29T12:20:35.335Z,70.80
2022-11-29T12:23:28.031Z,70.80
2022-11-29T12:25:59.970Z,70.80
2022-11-29T12:28:32.699Z,70.70
2022-11-29T12:31:08.276Z,70.70
2022-11-29T12:33:43.978Z,70.70
2022-11-29T12:36:25.534Z,70.60
2022-11-29T12:39:03.576Z,70.60
2022-11-29T12:41:41.772Z,70.60
2022-11-29T12:44:23.123Z,70.60
2022-11-29T12:47:13.249Z,70.60
2022-11-29T12:49:51.692Z,70.60
2022-11-29T12:52:27.955Z,70.60
2022-11-29T12:55:04.689Z,70.60
2022-11-29T12:57:40.413Z,70.60
2022-11-29T13:00:12.032Z,70.60
2022-11-29T13:02:53.448Z,70.60
2022-11-29T13:05:30.625Z,70.60
2022-11-29T13:08:13.399Z,70.50
2022-11-29T13:10:56.710Z,70.50
2022-11-29T13:13:36.705Z,70.50
2022-11-29T13:16:12.689Z,70.50
2022-11-29T13:18:50.699Z,70.40
2022-11-29T13:21:23.434Z,70.40
2022-11-29T13:24:08.496Z,70.40
2022-11-29T13:26:38.731Z,70.40
2022-11-29T13:29:10.287Z,70.40
2022-11-29T13:31:40.051Z,70.40
2022-11-29T13:34:14.278Z,70.20
2022-11-29T13:36:56.888Z,70.30
2022-11-29T13:39:38.724Z,70.60
2022-11-29T13:42:11.186Z,70.80
2022-11-29T13:44:45.338Z,70.90
2022-11-29T13:47:15.310Z,71.30
2022-11-29T13:49:58.376Z,71.30
2022-11-29T13:52:40.276Z,71.30
2022-11-29T13:55:28.655Z,71.30
2022-11-29T13:58:19.906Z,71.30
2022-11-29T14:00:52.565Z,71.30
2022-11-29T14:03:33.305Z,71.30
2022-11-29T14:06:09.785Z,71.30
2022-11-29T14:09:16.736Z,71.30
2022-11-29T14:11:33.888Z,71.30
2022-11-29T14:14:05.751Z,71.30
2022-11-29T14:16:38.954Z,71.20
2022-11-29T14:19:21.891Z,71.20
2022-11-29T14:22:22.120Z,71.20
2022-11-29T14:25:49.933Z,71.10
2022-11-29T14:28:32.673Z,71.10
2022-11-29T14:31:02.357Z,70.90
2022-11-29T14:33:53.412Z,70.80
2022-11-29T14:36:42.399Z,70.80
2022-11-29T14:39:24.940Z,70.80
2022-11-29T14:42:04.985Z,70.80
2022-11-29T14:44:44.029Z,70.80
2022-11-29T14:47:25.304Z,70.80
2022-11-29T14:49:55.963Z,70.70
2022-11-29T14:52:31.330Z,70.70
2022-11-29T14:55:03.058Z,70.60
2022-11-29T14:58:21.802Z,70.60
2022-11-29T15:01:09.557Z,70.60
2022-11-29T15:03:47.154Z,70.60
2022-11-29T15:06:23.129Z,70.80
2022-11-29T15:08:58.252Z,70.80
2022-11-29T15:11:41.130Z,70.90
2022-11-29T15:14:16.999Z,71.20
2022-11-29T15:17:06.366Z,71.20
2022-11-29T15:20:15.871Z,71.30
2022-11-29T15:22:49.069Z,71.30
2022-11-29T15:25:19.381Z,71.30
2022-11-29T15:27:54.789Z,71.30
2022-11-29T15:30:30.157Z,71.40
2022-11-29T15:33:00.647Z,71.40
2022-11-29T15:35:28.963Z,71.40
2022-11-29T15:37:57.454Z,71.50
2022-11-29T15:40:34.925Z,71.40
2022-11-29T15:43:14.608Z,71.40
2022-11-29T15:45:48.153Z,71.40
2022-11-29T15:48:23.547Z,71.40
2022-11-29T15:50:56.684Z,71.40
2022-11-29T15:53:28.391Z,71.60
2022-11-29T15:55:58.336Z,71.60
2022-11-29T15:58:27.977Z,71.60
2022-11-29T16:00:56.628Z,71.50
2022-11-29T16:03:30.002Z,71.50
2022-11-29T16:06:04.285Z,71.50
2022-11-29T16:08:37.671Z,71.50
2022-11-29T16:11:07.676Z,71.50
2022-11-29T16:13:38.582Z,71.50
2022-11-29T16:16:11.399Z,71.50
2022-11-29T16:18:42.808Z,71.50
2022-11-29T16:21:25.368Z,71.40
2022-11-29T16:23:53.619Z,71.40
2022-11-29T16:26:25.079Z,71.30
2022-11-29T16:28:56.056Z,71.30
2022-11-29T16:31:31.502Z,71.20
2022-11-29T16:34:09.625Z,71.20
2022-11-29T16:36:37.908Z,71.20
2022-11-29T16:39:07.756Z,71.20
2022-11-29T16:41:37.779Z,71.10
2022-11-29T16:44:07.392Z,71.10
2022-11-29T16:46:39.837Z,71.00
2022-11-29T16:49:36.201Z,71.00
2022-11-29T16:52:23.067Z,71.00
2022-11-29T16:54:51.346Z,70.80
2022-11-29T16:57:19.740Z,70.50
2022-11-29T16:59:47.898Z,70.50
2022-11-29T17:02:16.596Z,70.50
2022-11-29T17:04:46.341Z,70.60
2022-11-29T17:07:17.343Z,70.70
2022-11-29T17:09:45.672Z,70.70
2022-11-29T17:12:14.927Z,70.70
2022-11-29T17:14:42.847Z,70.80
2022-11-29T17:17:15.292Z,70.90
2022-11-29T17:19:43.130Z,70.90
2022-11-29T17:22:12.608Z,70.80
2022-11-29T17:24:46.265Z,70.90
2022-11-29T17:27:15.644Z,71.00
2022-11-29T17:29:43.424Z,71.00
2022-11-29T17:32:11.213Z,71.10
2022-11-29T17:34:38.958Z,71.20
2022-11-29T17:37:06.667Z,71.20
2022-11-29T17:39:35.730Z,71.30
2022-11-29T17:42:03.609Z,71.30
2022-11-29T17:44:33.813Z,71.30
2022-11-29T17:47:01.622Z,71.30
2022-11-29T17:49:29.325Z,71.40
2022-11-29T17:51:57.084Z,71.40
2022-11-29T17:54:24.904Z,71.50
2022-11-29T17:56:54.100Z,71.40
2022-11-29T17:59:21.845Z,71.40
2022-11-29T18:01:49.766Z,71.50
2022-11-29T18:04:19.141Z,71.50
2022-11-29T18:06:49.787Z,71.60
2022-11-29T18:09:18.711Z,71.60
2022-11-29T18:11:49.315Z,71.60
2022-11-29T18:14:21.021Z,71.60
2022-11-29T18:16:49.071Z,71.60
2022-11-29T18:19:18.838Z,71.60
2022-11-29T18:21:47.273Z,71.60
2022-11-29T18:24:15.184Z,71.60
2022-11-29T18:26:43.092Z,71.70
2022-11-29T18:29:11.571Z,71.80
2022-11-29T18:31:42.237Z,71.90
2022-11-29T18:34:11.326Z,71.90
2022-11-29T18:36:42.705Z,71.90
2022-11-29T18:39:13.767Z,71.90
2022-11-29T18:41:42.786Z,71.80
2022-11-29T18:44:12.983Z,71.80
2022-11-29T18:46:43.818Z,71.80
2022-11-29T18:49:13.159Z,71.80
2022-11-29T18:51:42.803Z,71.80
2022-11-29T18:54:10.597Z,71.80
2022-11-29T18:56:39.461Z,71.60
2022-11-29T18:59:10.785Z,71.40
2022-11-29T19:01:42.314Z,71.20
2022-11-29T19:04:14.572Z,71.00
2022-11-29T19:06:43.103Z,70.90
2022-11-29T19:09:14.694Z,70.70
2022-11-29T19:11:43.047Z,70.80
2022-11-29T19:14:12.693Z,70.90
2022-11-29T19:16:41.939Z,70.80
2022-11-29T19:19:11.503Z,71.00
2022-11-29T19:21:40.273Z,70.90
2022-11-29T19:24:13.770Z,71.00
2022-11-29T19:26:44.066Z,71.00
2022-11-29T19:29:11.812Z,71.00
2022-11-29T19:31:39.750Z,71.00
2022-11-29T19:34:07.641Z,71.10
2022-11-29T19:36:42.287Z,71.00
2022-11-29T19:39:10.616Z,71.10
2022-11-29T19:41:39.072Z,71.10
2022-11-29T19:44:08.559Z,71.10
2022-11-29T19:46:38.134Z,71.20
2022-11-29T19:49:07.385Z,71.10
2022-11-29T19:51:37.332Z,71.10
2022-11-29T19:54:07.093Z,71.10
2022-11-29T19:56:34.910Z,71.10
2022-11-29T19:59:02.656Z,71.20
2022-11-29T20:01:40.287Z,71.20
2022-11-29T20:04:10.540Z,71.20
2022-11-29T20:06:40.273Z,71.20
2022-11-29T20:09:08.136Z,71.30
2022-11-29T20:11:36.093Z,71.10
2022-11-29T20:14:05.435Z,71.10
2022-11-29T20:16:34.585Z,71.10
2022-11-29T20:19:02.527Z,71.10
2022-11-29T20:21:32.177Z,71.10
2022-11-29T20:24:03.842Z,71.10
2022-11-29T20:26:33.823Z,71.10
2022-11-29T20:29:02.418Z,71.20
2022-11-29T20:31:31.030Z,71.10
2022-11-29T20:33:59.283Z,71.20
2022-11-29T20:36:38.752Z,71.20
2022-11-29T20:39:17.780Z,71.10
2022-11-29T20:41:54.751Z,71.10
2022-11-29T20:44:32.137Z,71.10
2022-11-29T20:47:00.548Z,71.10
2022-11-29T20:49:28.832Z,71.10
2022-11-29T20:52:03.051Z,71.10
2022-11-29T20:54:32.194Z,70.90
2022-11-29T20:57:00.014Z,70.90
2022-11-29T20:59:27.807Z,70.80
2022-11-29T21:01:56.110Z,70.80
2022-11-29T21:04:23.912Z,70.80
2022-11-29T21:06:51.649Z,70.80
2022-11-29T21:09:19.363Z,70.80
2022-11-29T21:11:49.216Z,70.80
2022-11-29T21:14:17.538Z,70.80
2022-11-29T21:16:45.627Z,70.80
2022-11-29T21:19:20.381Z,70.80
2022-11-29T21:22:02.727Z,70.80
2022-11-29T21:24:45.919Z,70.80
2022-11-29T21:27:19.172Z,70.80
2022-11-29T21:29:47.433Z,70.80
2022-11-29T21:32:22.606Z,70.80
2022-11-29T21:34:50.668Z,71.70
2022-11-29T21:37:21.306Z,70.90
2022-11-29T21:39:51.165Z,70.90
2022-11-29T21:42:20.338Z,70.80
2022-11-29T21:44:48.547Z,70.80
2022-11-29T21:47:16.470Z,70.80
2022-11-29T21:49:44.882Z,70.90
2022-11-29T21:52:15.351Z,70.90
2022-11-29T21:54:45.789Z,70.90
2022-11-29T21:57:13.828Z,70.90
2022-11-29T21:59:42.952Z,70.90
2022-11-29T22:02:10.889Z,71.00
2022-11-29T22:04:38.749Z,71.00
2022-11-29T22:07:06.504Z,71.00
2022-11-29T22:09:34.365Z,71.00
2022-11-29T22:12:14.640Z,71.00
2022-11-29T22:14:51.171Z,71.10
2022-11-29T22:17:18.897Z,71.10
2022-11-29T22:19:46.624Z,71.00
2022-11-29T22:22:15.616Z,71.10
2022-11-29T22:24:43.356Z,71.10
2022-11-29T22:27:11.093Z,71.10
2022-11-29T22:29:38.870Z,71.10
2022-11-29T22:32:07.939Z,71.10
2022-11-29T22:34:35.656Z,71.10
2022-11-29T22:37:03.383Z,71.20
2022-11-29T22:39:31.135Z,71.10
2022-11-29T22:41:58.847Z,71.10
2022-11-29T22:44:26.669Z,71.20
2022-11-29T22:46:54.507Z,71.20
2022-11-29T22:49:23.583Z,71.20
2022-11-29T22:51:52.112Z,71.20
2022-11-29T22:54:20.169Z,71.20
2022-11-29T22:56:48.301Z,71.20
2022-11-29T22:59:16.049Z,71.20
2022-11-29T23:01:44.295Z,71.20
2022-11-29T23:04:13.057Z,71.20
2022-11-29T23:06:43.759Z,71.20
2022-11-29T23:09:15.773Z,71.20
2022-11-29T23:11:44.357Z,71.20
2022-11-29T23:14:12.587Z,71.20
2022-11-29T23:16:40.672Z,71.20
2022-11-29T23:19:08.468Z,71.20
2022-11-29T23:21:38.012Z,71.30
2022-11-29T23:24:07.748Z,71.30
2022-11-29T23:26:38.822Z,71.30
2022-11-29T23:29:08.740Z,71.30
2022-11-29T23:31:36.541Z,71.30
2022-11-29T23:34:05.273Z,71.30
2022-11-29T23:36:33.083Z,71.30
2022-11-29T23:39:00.856Z,71.30
2022-11-29T23:41:30.111Z,71.30
2022-11-29T23:43:59.513Z,71.30
2022-11-29T23:46:27.485Z,71.30
2022-11-29T23:48:55.334Z,71.30
2022-11-29T23:51:23.077Z,71.40
2022-11-29T23:53:52.759Z,71.30
2022-11-29T23:56:21.379Z,71.40
2022-11-29T23:58:50.893Z,71.40
